Time;durP1;ratioP1;P1;durP2;ratioP2;P2;SDS_P1;SDS_P2;PMS_P1;PMS_P2;Temp;Humidity;BMP_temperature;BMP_pressure;BME280_temperature;BME280_humidity;BME280_pressure;Samples;Min_cycle;Max_cycle;Signal;HPM_P1;HPM_P2
2023/05/24 00:00:16;;;;;;;;;;;;;;;14.74;100.00;99518.72;5042426;28;20411;-39
2023/05/24 00:02:41;;;;;;;;;;;;;;;15.01;100.00;99519.31;5041619;28;19925;-39
2023/05/24 00:05:08;;;;;;;;;;;;;;;15.77;100.00;99493.53;5041072;28;19964;-40
2023/05/24 00:07:33;;;;;;;;;;;;;;;16.17;100.00;99478.72;5041611;28;19920;-39
2023/05/24 00:09:59;;;;;;;;;;;;;;;16.03;100.00;99476.78;5024183;28;19969;-39
2023/05/24 00:12:24;;;;;;;;;;;;;;;15.25;100.00;99511.38;5040674;28;19924;-39
2023/05/24 00:14:50;;;;;;;;;;;;;;;14.48;100.00;99521.47;5040563;28;19921;-39
2023/05/24 00:17:15;;;;;;;;;;;;;;;13.80;100.00;99555.97;5040745;28;19920;-39
2023/05/24 00:19:40;;;;;;;;;;;;;;;13.71;100.00;99545.94;5040499;28;20031;-39
2023/05/24 00:22:05;;;;;;;;;;;;;;;13.51;100.00;99559.59;5040872;28;19921;-39
2023/05/24 00:24:31;;;;;;;;;;;;;;;13.73;100.00;99559.69;5041306;28;20028;-39
2023/05/24 00:26:56;;;;;;;;;;;;;;;15.71;100.00;99486.03;5040265;28;19924;-39
2023/05/24 00:29:21;;;;;;;;;;;;;;;16.39;100.00;99459.50;5041580;28;20086;-39
2023/05/24 00:31:46;;;;;;;;;;;;;;;16.54;100.00;99461.34;5041763;28;20007;-39
2023/05/24 00:34:12;;;;;;;;;;;;;;;15.02;100.00;99487.28;5041175;28;20003;-39
2023/05/24 00:36:37;;;;;;;;;;;;;;;14.81;100.00;99495.97;5040489;28;19916;-39
2023/05/24 00:39:03;;;;;;;;;;;;;;;14.65;100.00;99508.72;5041257;28;19966;-39
2023/05/24 00:41:28;;;;;;;;;;;;;;;12.89;100.00;99560.78;5041261;28;19924;-39
2023/05/24 00:43:53;;;;;;;;;;;;;;;12.73;100.00;99575.09;5040703;28;19927;-39
2023/05/24 00:46:19;;;;;;;;;;;;;;;12.74;100.00;99571.59;5040039;28;19932;-39
2023/05/24 00:48:44;;;;;;;;;;;;;;;12.41;100.00;99579.50;5022452;28;19931;-39
2023/05/24 00:51:10;;;;;;;;;;;;;;;12.35;100.00;99590.03;5041796;28;19939;-39
2023/05/24 00:53:36;;;;;;;;;;;;;;;12.25;100.00;99592.03;5040606;28;19990;-39
2023/05/24 00:56:01;;;;;;;;;;;;;;;12.63;100.00;99584.00;5022325;28;19956;-39
2023/05/24 00:58:29;;;;;;;;;;;;;;;13.55;100.00;99548.22;5040195;28;20317;-39
2023/05/24 01:00:58;;;;;;;;;;;;;;;13.16;100.00;99548.69;5023245;28;19912;-39
2023/05/24 01:03:23;;;;;;;;;;;;;;;13.92;100.00;99530.53;5024034;28;19924;-39
2023/05/24 01:05:48;;;;;;;;;;;;;;;12.84;100.00;99547.16;5039908;28;19924;-39
2023/05/24 01:08:22;;;;;;;;;;;;;;;12.71;100.00;99562.22;5040266;28;19920;-39
2023/05/24 01:10:53;;;;;;;;;;;;;;;12.46;100.00;99575.06;5040443;28;19952;-39
2023/05/24 01:13:30;;;;;;;;;;;;;;;12.21;100.00;99581.84;4989863;28;19939;-39
2023/05/24 01:15:58;;;;;;;;;;;;;;;12.22;100.00;99584.38;5021891;28;19931;-39
2023/05/24 01:18:28;;;;;;;;;;;;;;;11.84;100.00;99588.03;5020485;28;19963;-39
2023/05/24 01:21:14;;;;;;;;;;;;;;;11.87;100.00;99582.78;5039518;28;19920;-39
2023/05/24 01:23:45;;;;;;;;;;;;;;;11.57;100.00;99600.78;5039122;28;20423;-39
2023/05/24 01:26:29;;;;;;;;;;;;;;;11.52;100.00;99607.81;5038517;28;19978;-39
2023/05/24 01:28:54;;;;;;;;;;;;;;;11.57;100.00;99599.94;5040498;28;19924;-39
2023/05/24 01:31:20;;;;;;;;;;;;;;;11.65;100.00;99605.72;5039462;28;20471;-39
2023/05/24 01:33:45;;;;;;;;;;;;;;;11.46;100.00;99615.69;5038629;28;19916;-39
2023/05/24 01:36:10;;;;;;;;;;;;;;;11.81;100.00;99599.25;5020080;28;20309;-39
2023/05/24 01:38:36;;;;;;;;;;;;;;;12.97;100.00;99594.97;5037912;28;19917;-39
2023/05/24 01:41:14;;;;;;;;;;;;;;;12.24;100.00;99566.25;5019300;28;19920;-39
2023/05/24 01:43:40;;;;;;;;;;;;;;;11.99;100.00;99577.28;5037301;28;19917;-39
2023/05/24 01:46:24;;;;;;;;;;;;;;;12.02;100.00;99581.50;5019468;28;19989;-39
2023/05/24 01:48:49;;;;;;;;;;;;;;;12.72;100.00;99569.06;5037920;28;19947;-39
2023/05/24 01:51:15;;;;;;;;;;;;;;;13.11;100.00;99553.16;5036892;28;20171;-39
2023/05/24 01:53:41;;;;;;;;;;;;;;;14.11;100.00;99521.16;5018649;28;19920;-39
2023/05/24 01:56:06;;;;;;;;;;;;;;;14.56;100.00;99502.16;5018747;28;19927;-39
2023/05/24 01:58:32;;;;;;;;;;;;;;;15.35;100.00;99453.00;5036215;28;19920;-39
2023/05/24 02:00:57;;;;;;;;;;;;;;;15.45;100.00;99451.66;5019020;28;19921;-39
2023/05/24 02:03:22;;;;;;;;;;;;;;;15.68;100.00;99436.81;5037588;28;20035;-39
2023/05/24 02:05:48;;;;;;;;;;;;;;;15.69;100.00;99430.69;5037539;28;19925;-39
2023/05/24 02:08:13;;;;;;;;;;;;;;;15.66;100.00;99425.66;5037632;28;20083;-39
2023/05/24 02:10:38;;;;;;;;;;;;;;;15.62;100.00;99418.91;5037081;28;19972;-40
2023/05/24 02:13:04;;;;;;;;;;;;;;;13.45;100.00;99483.91;5036869;28;19987;-39
2023/05/24 02:15:29;;;;;;;;;;;;;;;12.76;100.00;99515.53;5036591;28;20409;-40
2023/05/24 02:17:55;;;;;;;;;;;;;;;12.54;100.00;99520.53;5035809;28;19928;-39
2023/05/24 02:20:21;;;;;;;;;;;;;;;12.44;100.00;99548.41;5036633;28;19924;-39
2023/05/24 02:22:46;;;;;;;;;;;;;;;13.51;100.00;99507.00;5036736;28;20264;-40
2023/05/24 02:25:12;;;;;;;;;;;;;;;12.64;100.00;99531.47;5036247;28;21494;-39
2023/05/24 02:27:37;;;;;;;;;;;;;;;12.69;100.00;99525.22;5036614;28;19920;-39
2023/05/24 02:30:02;;;;;;;;;;;;;;;14.38;100.00;99485.53;5036459;28;19920;-39
2023/05/24 02:32:28;;;;;;;;;;;;;;;14.97;100.00;99446.91;5036689;28;19924;-40
2023/05/24 02:34:53;;;;;;;;;;;;;;;15.35;100.00;99410.63;5037716;28;20361;-39
2023/05/24 02:37:19;;;;;;;;;;;;;;;15.37;100.00;99409.66;5037699;28;19927;-40
2023/05/24 02:39:44;;;;;;;;;;;;;;;15.29;100.00;99422.13;5036928;28;19923;-39
2023/05/24 02:42:10;;;;;;;;;;;;;;;15.44;100.00;99410.19;5036953;28;20195;-40
2023/05/24 02:44:35;;;;;;;;;;;;;;;15.43;100.00;99414.56;5036233;28;19931;-40
2023/05/24 02:47:00;;;;;;;;;;;;;;;15.59;100.00;99408.69;5019409;28;20365;-39
2023/05/24 02:49:26;;;;;;;;;;;;;;;15.39;100.00;99415.59;5036801;28;19921;-39
2023/05/24 02:51:51;;;;;;;;;;;;;;;15.29;100.00;99413.50;5037005;28;19923;-39
2023/05/24 02:54:17;;;;;;;;;;;;;;;15.54;100.00;99402.84;5036219;28;19942;-39
2023/05/24 02:56:43;;;;;;;;;;;;;;;14.91;100.00;99436.78;5036291;28;19948;-39
2023/05/24 02:59:08;;;;;;;;;;;;;;;13.42;100.00;99489.22;5037143;28;19990;-40
2023/05/24 03:01:33;;;;;;;;;;;;;;;12.09;100.00;99527.09;5036088;28;19924;-40
2023/05/24 03:03:58;;;;;;;;;;;;;;;12.02;100.00;99541.06;5036542;28;20282;-39
2023/05/24 03:06:24;;;;;;;;;;;;;;;11.67;100.00;99560.94;5010943;28;20007;-39
2023/05/24 03:08:49;;;;;;;;;;;;;;;11.38;100.00;99577.22;5036684;28;19920;-39
2023/05/24 03:11:15;;;;;;;;;;;;;;;11.22;100.00;99589.66;5037102;28;20349;-39
2023/05/24 03:13:40;;;;;;;;;;;;;;;11.29;100.00;99604.06;5035416;28;19921;-40
2023/05/24 03:16:05;;;;;;;;;;;;;;;11.54;100.00;99595.72;5036728;28;19916;-39
2023/05/24 03:18:30;;;;;;;;;;;;;;;11.40;100.00;99605.53;5036994;28;19974;-40
2023/05/24 03:20:56;;;;;;;;;;;;;;;11.03;100.00;99611.59;5035754;28;19913;-39
2023/05/24 03:23:21;;;;;;;;;;;;;;;10.93;100.00;99608.41;5035599;28;20374;-39
2023/05/24 03:25:46;;;;;;;;;;;;;;;10.81;100.00;99618.97;5036520;28;20408;-39
2023/05/24 03:28:13;;;;;;;;;;;;;;;11.06;100.00;99632.13;5036953;28;20607;-39
2023/05/24 03:30:38;;;;;;;;;;;;;;;11.00;100.00;99625.41;5036715;28;19916;-39
2023/05/24 03:33:04;;;;;;;;;;;;;;;11.03;100.00;99635.63;5037224;28;19927;-39
2023/05/24 03:35:29;;;;;;;;;;;;;;;10.73;100.00;99637.19;5035963;28;20131;-39
2023/05/24 03:37:54;;;;;;;;;;;;;;;10.74;100.00;99654.38;5036266;28;19944;-39
2023/05/24 03:40:20;;;;;;;;;;;;;;;10.86;100.00;99668.69;5037096;28;19948;-39
2023/05/24 03:42:45;;;;;;;;;;;;;;;10.62;100.00;99685.53;5036695;28;20260;-39
2023/05/24 03:45:10;;;;;;;;;;;;;;;10.54;100.00;99702.88;5036018;28;20409;-39
2023/05/24 03:47:35;;;;;;;;;;;;;;;11.05;100.00;99700.03;5036954;28;20430;-39
2023/05/24 03:50:00;;;;;;;;;;;;;;;10.66;100.00;99700.88;5036454;28;19981;-39
2023/05/24 03:52:26;;;;;;;;;;;;;;;10.30;100.00;99712.78;5036403;28;20039;-39
2023/05/24 03:54:51;;;;;;;;;;;;;;;10.79;100.00;99719.50;5036147;28;20043;-39
2023/05/24 03:57:16;;;;;;;;;;;;;;;10.73;100.00;99729.09;5036241;28;19925;-39
2023/05/24 03:59:41;;;;;;;;;;;;;;;10.45;100.00;99734.81;5035403;28;19935;-39
2023/05/24 04:02:07;;;;;;;;;;;;;;;10.79;100.00;99755.59;5036720;28;19917;-39
2023/05/24 04:04:32;;;;;;;;;;;;;;;11.06;100.00;99767.03;5037596;28;19916;-39
2023/05/24 04:06:57;;;;;;;;;;;;;;;11.08;100.00;99762.69;5038178;28;20078;-39
2023/05/24 04:09:23;;;;;;;;;;;;;;;11.20;100.00;99771.00;5040387;28;20011;-39
2023/05/24 04:11:48;;;;;;;;;;;;;;;11.20;100.00;99765.84;5039384;28;19921;-39
2023/05/24 04:14:13;;;;;;;;;;;;;;;11.35;100.00;99765.53;5039030;28;19924;-40
2023/05/24 04:16:40;;;;;;;;;;;;;;;11.16;100.00;99770.25;5038443;28;19925;-40
2023/05/24 04:19:05;;;;;;;;;;;;;;;12.35;100.00;99765.66;5039889;28;19952;-40
2023/05/24 04:21:32;;;;;;;;;;;;;;;13.18;100.00;99703.78;5039771;28;20748;-40
2023/05/24 04:23:59;;;;;;;;;;;;;;;13.24;100.00;99669.97;5039666;28;19921;-41
2023/05/24 04:26:24;;;;;;;;;;;;;;;12.55;100.00;99672.94;5038392;28;20401;-40
2023/05/24 04:28:49;;;;;;;;;;;;;;;12.19;100.00;99692.06;5040619;28;19917;-40
2023/05/24 04:31:15;;;;;;;;;;;;;;;12.34;100.00;99710.56;5039847;28;20043;-40
2023/05/24 04:33:40;;;;;;;;;;;;;;;12.24;100.00;99716.88;5040144;28;20003;-41
2023/05/24 04:36:07;;;;;;;;;;;;;;;11.91;100.00;99740.13;5039115;28;19939;-40
2023/05/24 04:38:33;;;;;;;;;;;;;;;11.80;100.00;99787.72;5039916;28;20466;-41
2023/05/24 04:40:58;;;;;;;;;;;;;;;11.61;100.00;99802.75;5037951;28;19920;-41
2023/05/24 04:43:25;;;;;;;;;;;;;;;11.64;100.00;99816.44;5039251;28;19935;-40
2023/05/24 04:45:50;;;;;;;;;;;;;;;11.47;100.00;99840.06;5040874;28;19928;-40
2023/05/24 04:48:16;;;;;;;;;;;;;;;12.09;100.00;99862.72;5041340;28;19916;-40
2023/05/24 04:50:41;;;;;;;;;;;;;;;12.06;100.00;99852.47;5039085;28;19921;-40
2023/05/24 04:53:06;;;;;;;;;;;;;;;11.88;100.00;99848.63;5040962;28;19917;-40
2023/05/24 04:55:32;;;;;;;;;;;;;;;12.16;100.00;99862.56;5040140;28;19955;-40
2023/05/24 04:57:57;;;;;;;;;;;;;;;12.82;100.00;99843.63;5041958;28;19917;-40
2023/05/24 05:00:23;;;;;;;;;;;;;;;13.42;100.00;99807.44;5039912;28;19921;-40
2023/05/24 05:02:48;;;;;;;;;;;;;;;14.39;100.00;99737.72;5038059;28;19921;-40
2023/05/24 05:05:13;;;;;;;;;;;;;;;14.35;100.00;99679.19;5039303;28;19956;-40
2023/05/24 05:07:39;;;;;;;;;;;;;;;14.80;100.00;99636.88;5039792;28;19924;-40
2023/05/24 05:10:05;;;;;;;;;;;;;;;15.79;100.00;99585.22;5039675;28;20389;-40
2023/05/24 05:12:30;;;;;;;;;;;;;;;13.68;100.00;99618.50;5038285;28;19920;-41
2023/05/24 05:14:55;;;;;;;;;;;;;;;12.78;100.00;99668.84;5037057;28;19967;-41
2023/05/24 05:17:21;;;;;;;;;;;;;;;12.21;100.00;99721.28;5036478;28;20813;-40
2023/05/24 05:19:46;;;;;;;;;;;;;;;12.67;100.00;99761.34;5036767;28;19982;-40
2023/05/24 05:22:11;;;;;;;;;;;;;;;13.72;100.00;99775.41;5036781;28;19921;-40
2023/05/24 05:24:36;;;;;;;;;;;;;;;14.26;100.00;99752.06;5038737;28;19978;-40
2023/05/24 05:27:02;;;;;;;;;;;;;;;15.42;100.00;99645.66;5038365;28;19921;-40
2023/05/24 05:29:27;;;;;;;;;;;;;;;14.81;100.00;99607.47;5038416;28;19920;-40
2023/05/24 05:31:52;;;;;;;;;;;;;;;14.72;100.00;99597.47;5038159;28;20443;-40
2023/05/24 05:34:18;;;;;;;;;;;;;;;15.10;100.00;99613.22;5038463;28;19916;-40
2023/05/24 05:36:43;;;;;;;;;;;;;;;14.92;100.00;99605.28;5038598;28;19924;-40
2023/05/24 05:39:09;;;;;;;;;;;;;;;15.50;100.00;99598.59;5038681;28;19916;-40
2023/05/24 05:41:36;;;;;;;;;;;;;;;14.60;100.00;99612.59;5038750;28;19943;-40
2023/05/24 05:44:01;;;;;;;;;;;;;;;14.04;100.00;99636.22;5038342;28;19917;-40
2023/05/24 05:46:27;;;;;;;;;;;;;;;13.34;100.00;99655.91;5037131;28;19917;-40
2023/05/24 05:48:52;;;;;;;;;;;;;;;12.67;100.00;99738.09;5039018;28;20104;-40
2023/05/24 05:51:17;;;;;;;;;;;;;;;12.73;100.00;99790.44;5038319;28;20214;-40
2023/05/24 05:53:42;;;;;;;;;;;;;;;12.55;100.00;99815.06;5038638;28;19924;-40
2023/05/24 05:56:07;;;;;;;;;;;;;;;12.13;100.00;99854.03;5037789;28;19917;-40
2023/05/24 05:58:33;;;;;;;;;;;;;;;12.61;100.00;99877.78;5038003;28;20203;-40
2023/05/24 06:00:58;;;;;;;;;;;;;;;13.19;100.00;99864.09;5038399;28;19920;-40
2023/05/24 06:03:23;;;;;;;;;;;;;;;12.82;100.00;99886.69;5037578;28;19939;-40
2023/05/24 06:05:48;;;;;;;;;;;;;;;12.22;100.00;99901.16;5037502;28;19917;-40
2023/05/24 06:08:14;;;;;;;;;;;;;;;12.18;100.00;99948.59;5037364;28;19986;-40
2023/05/24 06:10:39;;;;;;;;;;;;;;;12.02;100.00;99974.78;5037753;28;19916;-40
2023/05/24 06:13:04;;;;;;;;;;;;;;;12.16;100.00;100012.31;5037760;28;19921;-40
2023/05/24 06:15:29;;;;;;;;;;;;;;;12.26;100.00;100027.59;5037109;28;21551;-40
2023/05/24 06:17:55;;;;;;;;;;;;;;;12.50;100.00;100054.63;5037971;28;19916;-40
2023/05/24 06:20:20;;;;;;;;;;;;;;;12.16;100.00;100069.13;5038258;28;19927;-40
2023/05/24 06:22:48;;;;;;;;;;;;;;;12.11;100.00;100088.19;5037366;28;19968;-40
2023/05/24 06:25:14;;;;;;;;;;;;;;;11.82;100.00;100106.81;5037637;28;19984;-40
2023/05/24 06:27:39;;;;;;;;;;;;;;;11.99;100.00;100152.13;5039249;28;20003;-40
2023/05/24 06:30:05;;;;;;;;;;;;;;;12.07;100.00;100174.34;5037521;28;20431;-40
2023/05/24 06:32:30;;;;;;;;;;;;;;;12.04;100.00;100210.56;5037871;28;20830;-43
2023/05/24 06:34:56;;;;;;;;;;;;;;;12.52;100.00;100243.19;5037526;28;20023;-40
2023/05/24 06:37:24;;;;;;;;;;;;;;;12.55;100.00;100228.47;5018480;28;19951;-40
2023/05/24 06:39:49;;;;;;;;;;;;;;;12.55;100.00;100218.16;5037160;28;19916;-40
2023/05/24 06:42:14;;;;;;;;;;;;;;;12.25;100.00;100229.09;5037289;28;19928;-40
2023/05/24 06:44:40;;;;;;;;;;;;;;;12.38;100.00;100253.78;5036817;28;19945;-40
2023/05/24 06:47:05;;;;;;;;;;;;;;;12.25;100.00;100266.09;5037678;28;19924;-40
2023/05/24 06:49:30;;;;;;;;;;;;;;;12.29;100.00;100297.88;5037097;28;20187;-40
2023/05/24 06:51:56;;;;;;;;;;;;;;;12.03;100.00;100309.53;5037849;28;19913;-40
2023/05/24 06:54:21;;;;;;;;;;;;;;;12.43;100.00;100345.00;5036773;28;19953;-40
2023/05/24 06:56:46;;;;;;;;;;;;;;;12.37;100.00;100372.69;5037088;28;21394;-40
2023/05/24 06:59:11;;;;;;;;;;;;;;;13.12;100.00;100412.63;5036767;28;19912;-40
2023/05/24 07:01:38;;;;;;;;;;;;;;;13.03;100.00;100394.72;5035614;28;20274;-40
2023/05/24 07:04:04;;;;;;;;;;;;;;;13.36;100.00;100386.31;5019574;28;19952;-40
2023/05/24 07:06:31;;;;;;;;;;;;;;;13.08;100.00;100378.22;5036284;28;20017;-40
2023/05/24 07:08:56;;;;;;;;;;;;;;;12.90;100.00;100374.25;5036821;28;19917;-40
2023/05/24 07:11:21;;;;;;;;;;;;;;;13.67;100.00;100398.56;5037353;28;20133;-40
2023/05/24 07:13:47;;;;;;;;;;;;;;;13.91;100.00;100376.44;5018443;28;19917;-40
2023/05/24 07:16:12;;;;;;;;;;;;;;;13.35;100.00;100357.88;5036777;28;20453;-40
2023/05/24 07:18:37;;;;;;;;;;;;;;;13.54;100.00;100355.72;5037333;28;19913;-40
2023/05/24 07:21:02;;;;;;;;;;;;;;;13.45;100.00;100330.03;5036165;28;19924;-40
2023/05/24 07:23:28;;;;;;;;;;;;;;;13.69;100.00;100308.78;5036288;28;19981;-40
2023/05/24 07:25:53;;;;;;;;;;;;;;;13.17;100.00;100295.25;5037277;28;20166;-40
2023/05/24 07:28:19;;;;;;;;;;;;;;;13.00;100.00;100307.72;5036093;28;20245;-40
2023/05/24 07:30:44;;;;;;;;;;;;;;;13.08;100.00;100320.47;5037620;28;19917;-40
2023/05/24 07:33:10;;;;;;;;;;;;;;;13.06;100.00;100348.09;5036657;28;19916;-40
2023/05/24 07:35:35;;;;;;;;;;;;;;;13.55;100.00;100354.84;5035944;28;20347;-40
2023/05/24 07:38:00;;;;;;;;;;;;;;;15.15;100.00;100297.13;5036752;28;19944;-40
2023/05/24 07:40:25;;;;;;;;;;;;;;;13.53;100.00;100203.91;5036987;28;19916;-40
2023/05/24 07:42:51;;;;;;;;;;;;;;;13.24;100.00;100222.69;5039021;28;20381;-40
2023/05/24 07:45:16;;;;;;;;;;;;;;;12.71;100.00;100243.69;5041181;28;20508;-40
2023/05/24 07:47:41;;;;;;;;;;;;;;;13.01;100.00;100270.59;5039481;28;20433;-40
2023/05/24 07:50:07;;;;;;;;;;;;;;;13.19;100.00;100290.06;5041096;28;20544;-40
2023/05/24 07:52:32;;;;;;;;;;;;;;;13.58;100.00;100328.88;5040682;28;19916;-40
2023/05/24 07:54:57;;;;;;;;;;;;;;;13.48;100.00;100304.97;5021388;28;20191;-40
2023/05/24 07:57:22;;;;;;;;;;;;;;;14.01;100.00;100281.25;5040744;28;19995;-40
2023/05/24 07:59:48;;;;;;;;;;;;;;;13.77;100.00;100255.06;5040215;28;20028;-40
2023/05/24 08:02:14;;;;;;;;;;;;;;;13.42;100.00;100255.94;5039996;28;20010;-40
2023/05/24 08:04:39;;;;;;;;;;;;;;;14.23;100.00;100294.47;5039885;28;20275;-40
2023/05/24 08:07:05;;;;;;;;;;;;;;;14.23;100.00;100234.88;5039852;28;20332;-40
2023/05/24 08:09:35;;;;;;;;;;;;;;;13.61;100.00;100196.78;5020892;28;19921;-41
2023/05/24 08:12:01;;;;;;;;;;;;;;;13.85;100.00;100194.47;5040642;28;19979;-40
2023/05/24 08:14:26;;;;;;;;;;;;;;;13.45;100.00;100192.91;5039117;28;19917;-40
2023/05/24 08:16:51;;;;;;;;;;;;;;;13.60;100.00;100183.00;5039702;28;19913;-40
2023/05/24 08:19:16;;;;;;;;;;;;;;;14.00;100.00;100143.13;5039486;28;19917;-40
2023/05/24 08:21:42;;;;;;;;;;;;;;;14.26;100.00;100125.16;5039628;28;19917;-40
2023/05/24 08:24:07;;;;;;;;;;;;;;;14.50;100.00;100090.69;5038785;28;19921;-40
2023/05/24 08:26:32;;;;;;;;;;;;;;;15.27;100.00;100098.66;5039776;28;19932;-40
2023/05/24 08:28:58;;;;;;;;;;;;;;;15.24;100.00;100046.84;5039512;28;19923;-40
2023/05/24 08:31:23;;;;;;;;;;;;;;;14.26;100.00;100060.38;5040257;28;19924;-40
2023/05/24 08:33:49;;;;;;;;;;;;;;;14.15;100.00;100099.53;5039144;28;19919;-40
2023/05/24 08:36:15;;;;;;;;;;;;;;;14.94;100.00;100111.84;5039213;28;20383;-40
2023/05/24 08:38:41;;;;;;;;;;;;;;;14.55;100.00;100077.63;5040138;28;19959;-40
2023/05/24 08:41:07;;;;;;;;;;;;;;;14.37;100.00;100030.63;5039295;28;20026;-40
2023/05/24 08:43:32;;;;;;;;;;;;;;;14.95;100.00;99994.22;5039719;28;19924;-40
2023/05/24 08:45:57;;;;;;;;;;;;;;;15.73;100.00;99938.66;5038400;28;19920;-41
2023/05/24 08:48:22;;;;;;;;;;;;;;;16.65;100.00;99854.34;5039108;28;19920;-41
2023/05/24 08:50:48;;;;;;;;;;;;;;;16.09;100.00;99764.03;5021544;28;19956;-41
2023/05/24 08:53:13;;;;;;;;;;;;;;;16.45;100.00;99711.38;5038479;28;19948;-41
2023/05/24 08:55:38;;;;;;;;;;;;;;;16.10;100.00;99698.16;5020878;28;19964;-40
2023/05/24 08:58:04;;;;;;;;;;;;;;;16.42;100.00;99703.69;5021155;28;19916;-41
2023/05/24 09:00:29;;;;;;;;;;;;;;;17.08;100.00;99675.53;5021526;28;20007;-41
2023/05/24 09:02:56;;;;;;;;;;;;;;;16.37;100.00;99703.06;5038919;28;20424;-41
2023/05/24 09:05:21;;;;;;;;;;;;;;;17.44;100.00;99661.59;5039091;28;19928;-41
2023/05/24 09:07:47;;;;;;;;;;;;;;;19.39;100.00;99574.63;5037798;28;19917;-41
2023/05/24 09:10:12;;;;;;;;;;;;;;;16.27;100.00;99622.91;5038604;28;20429;-40
2023/05/24 09:12:38;;;;;;;;;;;;;;;15.37;100.00;99689.97;5039065;28;19917;-40
2023/05/24 09:15:04;;;;;;;;;;;;;;;15.33;100.00;99719.53;5037531;28;20003;-40
2023/05/24 09:17:33;;;;;;;;;;;;;;;15.74;100.00;99713.59;5039066;28;19917;-40
2023/05/24 09:19:58;;;;;;;;;;;;;;;16.35;100.00;99689.28;5038518;28;19917;-40
2023/05/24 09:22:25;;;;;;;;;;;;;;;16.06;100.00;99694.88;5038013;28;19943;-41
2023/05/24 09:24:50;;;;;;;;;;;;;;;16.16;100.00;99674.50;5037788;28;19917;-40
2023/05/24 09:27:16;;;;;;;;;;;;;;;15.65;100.00;99710.44;5037661;28;20023;-41
2023/05/24 09:29:42;;;;;;;;;;;;;;;15.92;100.00;99696.34;5038115;28;20123;-41
2023/05/24 09:32:07;;;;;;;;;;;;;;;15.02;100.00;99718.13;5037905;28;19939;-41
2023/05/24 09:34:42;;;;;;;;;;;;;;;15.18;100.00;99739.13;5037426;28;19924;-41
2023/05/24 09:37:16;;;;;;;;;;;;;;;15.45;100.00;99737.19;5037745;28;19956;-41
2023/05/24 09:39:42;;;;;;;;;;;;;;;15.72;100.00;99708.44;5036025;28;19943;-40
2023/05/24 09:42:07;;;;;;;;;;;;;;;16.93;100.00;99665.84;5037541;28;19925;-40
2023/05/24 09:44:32;;;;;;;;;;;;;;;18.17;100.00;99572.75;5036581;28;19917;-40
2023/05/24 09:47:00;;;;;;;;;;;;;;;17.42;100.00;99579.28;5037434;28;20019;-40
2023/05/24 09:49:26;;;;;;;;;;;;;;;16.03;100.00;99627.47;5036453;28;19925;-41
2023/05/24 09:51:51;;;;;;;;;;;;;;;17.27;100.00;99628.63;5034364;28;20429;-40
2023/05/24 09:54:17;;;;;;;;;;;;;;;17.68;100.00;99611.81;5031528;28;19995;-41
2023/05/24 09:56:42;;;;;;;;;;;;;;;17.04;100.00;99603.72;5034073;28;20309;-40
2023/05/24 09:59:08;;;;;;;;;;;;;;;16.46;100.00;99645.44;5017069;28;20730;-41
2023/05/24 10:01:34;;;;;;;;;;;;;;;16.77;100.00;99620.63;5034452;28;20385;-40
2023/05/24 10:04:01;;;;;;;;;;;;;;;16.41;100.00;99600.63;5017422;28;19932;-39
2023/05/24 10:06:27;;;;;;;;;;;;;;;17.56;100.00;99595.91;5035183;28;19990;-40
2023/05/24 10:08:53;;;;;;;;;;;;;;;18.97;100.00;99557.91;5017674;28;19922;-41
2023/05/24 10:11:18;;;;;;;;;;;;;;;19.20;100.00;99513.03;5037150;28;19940;-41
2023/05/24 10:13:43;;;;;;;;;;;;;;;19.75;100.00;99523.69;5035283;28;19917;-41
2023/05/24 10:16:09;;;;;;;;;;;;;;;16.79;100.00;99600.59;5034642;28;20019;-41
2023/05/24 10:18:34;;;;;;;;;;;;;;;16.66;100.00;99624.56;5035748;28;19972;-41
2023/05/24 10:21:00;;;;;;;;;;;;;;;16.76;100.00;99631.94;5019235;28;19913;-41
2023/05/24 10:23:26;;;;;;;;;;;;;;;15.55;100.00;99646.78;5035688;28;20397;-41
2023/05/24 10:25:54;;;;;;;;;;;;;;;15.31;100.00;99682.41;5016209;28;19924;-41
2023/05/24 10:28:20;;;;;;;;;;;;;;;15.87;100.00;99655.88;5018304;28;19916;-41
2023/05/24 10:30:54;;;;;;;;;;;;;;;15.48;100.00;99677.34;5019041;28;20067;-41
2023/05/24 10:33:20;;;;;;;;;;;;;;;15.38;100.00;99691.63;5036516;28;19917;-40
2023/05/24 10:35:45;;;;;;;;;;;;;;;16.18;100.00;99670.09;5018878;28;19923;-41
2023/05/24 10:38:10;;;;;;;;;;;;;;;15.53;100.00;99684.13;5036258;28;19931;-40
2023/05/24 10:40:40;;;;;;;;;;;;;;;17.07;100.00;99637.38;5036472;28;19974;-41
2023/05/24 10:43:05;;;;;;;;;;;;;;;16.11;100.00;99614.13;5033941;28;20015;-41
2023/05/24 10:45:34;;;;;;;;;;;;;;;14.90;100.00;99669.34;5034651;28;20015;-41
2023/05/24 10:48:11;;;;;;;;;;;;;;;14.97;100.00;99706.25;5034381;28;19927;-41
2023/05/24 10:50:36;;;;;;;;;;;;;;;15.87;100.00;99688.75;5037005;28;19916;-40
2023/05/24 10:53:14;;;;;;;;;;;;;;;16.01;100.00;99680.38;5036199;28;19928;-41
2023/05/24 10:55:52;;;;;;;;;;;;;;;15.99;100.00;99648.44;5036538;28;20040;-41
2023/05/24 10:58:19;;;;;;;;;;;;;;;16.99;100.00;99625.66;5017729;28;19969;-40
2023/05/24 11:00:44;;;;;;;;;;;;;;;16.37;100.00;99578.28;5033132;28;19924;-41
2023/05/24 11:03:10;;;;;;;;;;;;;;;16.08;100.00;99596.06;5035037;28;19962;-41
2023/05/24 11:05:45;;;;;;;;;;;;;;;16.37;100.00;99609.47;5035380;28;20536;-41
2023/05/24 11:08:10;;;;;;;;;;;;;;;16.92;100.00;99633.78;5037462;28;19920;-41
2023/05/24 11:10:35;;;;;;;;;;;;;;;16.08;100.00;99619.47;5037311;28;20306;-41
2023/05/24 11:13:01;;;;;;;;;;;;;;;16.48;100.00;99628.88;5037768;28;20085;-41
2023/05/24 11:15:27;;;;;;;;;;;;;;;19.21;100.00;99534.75;5031868;28;19920;-41
2023/05/24 11:18:07;;;;;;;;;;;;;;;19.99;100.00;99482.97;5038861;28;20378;-41
2023/05/24 11:20:33;;;;;;;;;;;;;;;18.11;100.00;99536.59;5038750;28;20631;-41
2023/05/24 11:22:59;;;;;;;;;;;;;;;18.43;100.00;99510.50;5041707;28;19928;-41
2023/05/24 11:25:25;;;;;;;;;;;;;;;18.41;100.00;99508.00;5040054;28;20301;-41
2023/05/24 11:27:50;;;;;;;;;;;;;;;20.24;100.00;99484.03;5024149;28;20004;-41
2023/05/24 11:30:15;;;;;;;;;;;;;;;17.48;100.00;99537.31;5041478;28;19916;-40
2023/05/24 11:32:41;;;;;;;;;;;;;;;18.71;100.00;99517.63;5025369;28;19927;-40
2023/05/24 11:35:09;;;;;;;;;;;;;;;19.17;100.00;99523.63;5040882;28;19916;-41
2023/05/24 11:37:35;;;;;;;;;;;;;;;19.86;100.00;99489.91;5040968;28;19927;-41
2023/05/24 11:40:01;;;;;;;;;;;;;;;20.44;99.50;99465.25;5041444;28;20356;-41
2023/05/24 11:42:27;;;;;;;;;;;;;;;18.52;100.00;99499.56;5040527;28;20161;-41
2023/05/24 11:44:52;;;;;;;;;;;;;;;17.80;100.00;99543.44;5040165;28;19963;-41
2023/05/24 11:47:19;;;;;;;;;;;;;;;18.95;100.00;99549.31;5041137;28;19944;-41
2023/05/24 11:49:48;;;;;;;;;;;;;;;18.74;100.00;99546.97;5039623;28;19916;-41
2023/05/24 11:52:13;;;;;;;;;;;;;;;18.38;100.00;99535.09;5040978;28;20561;-41
2023/05/24 11:54:38;;;;;;;;;;;;;;;17.50;100.00;99562.34;5040161;28;20007;-41
2023/05/24 11:57:04;;;;;;;;;;;;;;;18.35;100.00;99535.25;5040048;28;19920;-41
2023/05/24 11:59:29;;;;;;;;;;;;;;;18.01;100.00;99551.91;5040313;28;19924;-41
2023/05/24 12:01:59;;;;;;;;;;;;;;;18.00;100.00;99554.59;5040683;28;20102;-41
2023/05/24 12:04:24;;;;;;;;;;;;;;;19.14;100.00;99549.94;5021728;28;20447;-41
2023/05/24 12:06:49;;;;;;;;;;;;;;;17.06;100.00;99611.44;5040805;28;19925;-42
2023/05/24 12:09:16;;;;;;;;;;;;;;;16.78;100.00;99614.50;5039954;28;19917;-41
2023/05/24 12:11:43;;;;;;;;;;;;;;;17.75;100.00;99597.56;5022803;28;19940;-42
2023/05/24 12:14:27;;;;;;;;;;;;;;;18.34;100.00;99571.88;5040126;28;19923;-40
2023/05/24 12:16:53;;;;;;;;;;;;;;;16.91;100.00;99600.03;5039214;28;19920;-41
2023/05/24 12:19:18;;;;;;;;;;;;;;;17.76;100.00;99579.22;5038958;28;20037;-41
2023/05/24 12:21:43;;;;;;;;;;;;;;;18.52;100.00;99525.63;5040632;28;19939;-41
2023/05/24 12:24:15;;;;;;;;;;;;;;;18.12;100.00;99554.78;5022495;28;19974;-42
2023/05/24 12:26:41;;;;;;;;;;;;;;;18.86;100.00;99550.72;5040364;28;19928;-41
2023/05/24 12:29:08;;;;;;;;;;;;;;;20.01;100.00;99509.84;5039574;28;20333;-42